Home > Products > Valid Products > MTR

000
SAUS44 KMRX 310807 COR
MTRGDP
METAR KGDP 310751Z AUTO 05034G39KT 9SM FEW015 BKN024 12/09 A3034 RMK
AO2 PK WND 05042/0711 SLP213 T01220089





000
SAUS44 KMRX 310608 COR
MTRGDP
METAR KGDP 310551Z AUTO 04036KT 10SM CLR 13/08 A3033 RMK AO2 PK WND
04039/0551 SLP211 T01330078 10178 20133 50007





000
SAUS44 KMRX 281207 COR
MTRGDP
METAR KGDP 281151Z AUTO 07030KT 10SM CLR 09/05 A3015 RMK AO2 PK WND
07035/1140 SLP156 T00890050 10183 20089 53004





    US Dept of Commerce
    National Oceanic and Atmospheric Administration
    National Weather Service
    1325 East West Highway
    Silver Spring, MD 20910
    Page Author: NWS Internet Services Team
Disclaimer
Information Quality
Credits
Glossary
Privacy Policy
Freedom of Information Act (FOIA)
About Us
Career Opportunities